createdAt,value
2022-12-19T00:02:12.562Z,-7.83
2022-12-19T00:07:15.490Z,-7.64
2022-12-19T00:12:19.383Z,-7.44
2022-12-19T00:17:23.140Z,-7.25
2022-12-19T00:22:26.349Z,-7.15
2022-12-19T00:27:29.196Z,-7.07
2022-12-19T00:32:32.054Z,-6.96
2022-12-19T00:37:35.235Z,-6.86
2022-12-19T00:42:40.346Z,-6.76
2022-12-19T00:47:43.166Z,-6.71
2022-12-19T00:52:46.054Z,-6.71
2022-12-19T00:57:49.914Z,-6.72
2022-12-19T01:02:55.400Z,-6.78
2022-12-19T01:07:58.372Z,-6.84
2022-12-19T01:13:01.237Z,-6.90
2022-12-19T01:18:04.125Z,-6.96
2022-12-19T01:23:08.151Z,-7.04
2022-12-19T01:28:14.806Z,-7.06
2022-12-19T01:33:20.973Z,-7.07
2022-12-19T01:38:23.828Z,-7.15
2022-12-19T01:43:30.565Z,-7.24
2022-12-19T01:48:40.008Z,-7.36
2022-12-19T01:53:49.174Z,-7.47
2022-12-19T01:59:05.971Z,-7.61
2022-12-19T02:04:10.546Z,-7.64
2022-12-19T02:09:13.727Z,-7.67
2022-12-19T02:14:16.710Z,-7.66
2022-12-19T02:19:19.510Z,-7.57
2022-12-19T02:24:36.799Z,-7.42
2022-12-19T02:29:49.585Z,-7.34
2022-12-19T02:35:13.716Z,-7.31
2022-12-19T02:40:24.386Z,-7.29
2022-12-19T02:45:33.856Z,-7.27
2022-12-19T02:50:39.040Z,-7.29
2022-12-19T02:56:14.138Z,-7.36
2022-12-19T03:01:29.372Z,-7.46
2022-12-19T03:06:45.178Z,-7.50
2022-12-19T03:11:56.134Z,-7.55
2022-12-19T03:17:04.845Z,-7.57
2022-12-19T03:22:08.488Z,-7.58
2022-12-19T03:27:39.448Z,-7.60
2022-12-19T03:32:46.806Z,-7.65
2022-12-19T03:37:52.184Z,-7.71
2022-12-19T03:43:09.690Z,-7.75
2022-12-19T03:48:43.445Z,-7.78
2022-12-19T03:53:56.476Z,-7.76
2022-12-19T03:59:09.985Z,-7.73
2022-12-19T04:04:14.854Z,-7.72
2022-12-19T04:09:22.663Z,-7.74
2022-12-19T04:14:31.924Z,-7.77
2022-12-19T04:19:48.079Z,-7.81
2022-12-19T04:24:54.118Z,-7.86
2022-12-19T04:29:59.361Z,-7.94
2022-12-19T04:35:03.093Z,-7.98
2022-12-19T04:40:08.338Z,-8.04
2022-12-19T04:45:11.410Z,-8.07
2022-12-19T04:50:14.594Z,-8.10
2022-12-19T04:55:17.580Z,-8.09
2022-12-19T05:00:20.430Z,-8.04
2022-12-19T05:05:23.467Z,-7.99
2022-12-19T05:10:26.350Z,-7.96
2022-12-19T05:15:29.203Z,-7.96
2022-12-19T05:20:32.214Z,-7.98
2022-12-19T05:25:36.204Z,-7.97
2022-12-19T05:30:39.703Z,-7.97
2022-12-19T05:35:42.641Z,-7.97
2022-12-19T05:40:45.699Z,-7.95
2022-12-19T05:45:48.927Z,-7.90
2022-12-19T05:50:51.836Z,-7.86
2022-12-19T05:56:04.697Z,-7.84
2022-12-19T06:01:20.208Z,-7.81
2022-12-19T06:06:26.184Z,-7.81
2022-12-19T06:11:29.336Z,-7.80
2022-12-19T06:16:32.300Z,-7.82
2022-12-19T06:21:35.335Z,-7.82
2022-12-19T06:26:38.166Z,-7.83
2022-12-19T06:31:41.015Z,-7.86
2022-12-19T06:36:43.909Z,-7.84
2022-12-19T06:42:05.423Z,-7.80
2022-12-19T06:47:08.322Z,-7.74
2022-12-19T06:52:11.216Z,-7.68
2022-12-19T06:57:14.097Z,-7.67
2022-12-19T07:02:30.293Z,-7.64
2022-12-19T07:07:33.781Z,-7.59
2022-12-19T07:12:37.074Z,-7.52
2022-12-19T07:17:40.414Z,-7.27
2022-12-19T07:22:43.989Z,-6.90
2022-12-19T07:27:47.853Z,-6.61
2022-12-19T07:32:50.713Z,-6.16
2022-12-19T07:37:53.705Z,-5.21
2022-12-19T07:43:00.542Z,-4.88
2022-12-19T07:48:04.616Z,-4.61
2022-12-19T07:53:07.511Z,-3.81
2022-12-19T07:58:13.035Z,-2.55
2022-12-19T08:03:15.901Z,-1.23
2022-12-19T08:08:18.911Z,-0.39
2022-12-19T08:13:21.735Z,-0.10
2022-12-19T08:18:26.441Z,-0.18
2022-12-19T08:23:29.544Z,-0.27
2022-12-19T08:28:33.921Z,-0.27
2022-12-19T08:33:37.395Z,-0.66
2022-12-19T08:38:40.958Z,-0.73
2022-12-19T08:43:49.463Z,-0.21
2022-12-19T08:48:52.289Z,0.32
2022-12-19T08:53:55.175Z,0.82
2022-12-19T08:58:58.004Z,0.89
2022-12-19T09:05:07.778Z,0.42
2022-12-19T09:09:23.920Z,0.09
2022-12-19T09:14:26.836Z,-0.01
2022-12-19T09:19:29.701Z,0.32
2022-12-19T09:24:33.038Z,0.75
2022-12-19T09:29:36.055Z,1.29
2022-12-19T09:34:39.297Z,1.72
2022-12-19T09:39:42.209Z,2.20
2022-12-19T09:45:06.984Z,2.97
2022-12-19T09:50:33.130Z,3.77
2022-12-19T09:55:40.823Z,4.35
2022-12-19T10:00:47.364Z,5.40
2022-12-19T10:06:49.249Z,6.40
2022-12-19T10:12:39.411Z,7.06
2022-12-19T10:17:35.023Z,6.89
2022-12-19T10:23:04.693Z,6.75
2022-12-19T10:28:39.267Z,6.51
2022-12-19T10:33:58.591Z,6.50
2022-12-19T10:39:15.241Z,7.28
2022-12-19T10:44:19.229Z,7.92
2022-12-19T10:49:28.477Z,8.47
2022-12-19T10:54:37.534Z,8.93
2022-12-19T10:59:40.439Z,8.78
2022-12-19T11:04:46.977Z,8.31
2022-12-19T11:10:16.189Z,8.45
2022-12-19T11:20:16.794Z,8.55
2022-12-19T11:29:30.141Z,7.74
2022-12-19T11:30:48.855Z,7.20
2022-12-19T11:36:52.641Z,7.09
2022-12-19T11:42:11.399Z,7.48
2022-12-19T11:47:33.904Z,6.48
2022-12-19T11:58:04.675Z,5.88
2022-12-19T12:03:41.620Z,5.81
2022-12-19T12:16:09.450Z,6.35
2022-12-19T12:24:23.237Z,6.30
2022-12-19T12:31:05.881Z,5.05
2022-12-19T12:31:20.456Z,4.50
2022-12-19T12:35:30.668Z,3.62
2022-12-19T12:38:19.074Z,2.14
2022-12-19T12:43:31.740Z,1.12
2022-12-19T12:48:43.115Z,0.87
2022-12-19T12:53:48.374Z,-0.23
2022-12-19T12:58:54.628Z,-1.56
2022-12-19T13:04:12.677Z,-1.91
2022-12-19T13:09:28.029Z,-2.11
2022-12-19T13:14:39.471Z,-2.52
2022-12-19T13:19:57.183Z,-2.98
2022-12-19T13:25:01.222Z,-3.55
2022-12-19T13:30:15.946Z,-4.01
2022-12-19T13:36:49.995Z,-4.34
2022-12-19T13:40:44.990Z,-4.61
2022-12-19T13:46:03.716Z,-4.76
2022-12-19T13:51:08.724Z,-4.86
2022-12-19T13:56:17.881Z,-4.98
2022-12-19T14:01:28.330Z,-5.05
2022-12-19T14:06:42.938Z,-5.12
2022-12-19T14:12:26.484Z,-5.17
2022-12-19T14:17:13.561Z,-5.23
2022-12-19T14:22:25.199Z,-5.23
2022-12-19T14:28:21.570Z,-5.17
2022-12-19T14:33:44.325Z,-5.08
2022-12-19T14:39:24.523Z,-5.03
2022-12-19T14:52:35.958Z,-4.95
2022-12-19T14:54:10.727Z,-4.89
2022-12-19T14:55:58.912Z,-4.84
2022-12-19T15:01:10.040Z,-4.75
2022-12-19T15:06:32.211Z,-4.70
2022-12-19T15:14:50.492Z,-4.64
2022-12-19T15:17:49.113Z,-4.59
2022-12-19T15:22:51.957Z,-4.53
2022-12-19T15:27:55.310Z,-4.47
2022-12-19T15:32:58.392Z,-4.41
2022-12-19T15:38:01.297Z,-4.35
2022-12-19T15:43:04.972Z,-4.28
2022-12-19T15:48:13.875Z,-4.21
2022-12-19T15:53:39.983Z,-4.16
2022-12-19T15:58:43.776Z,-4.12
2022-12-19T16:03:47.685Z,-4.05
2022-12-19T16:08:50.643Z,-3.96
2022-12-19T16:13:56.921Z,-3.89
2022-12-19T16:18:59.758Z,-3.81
2022-12-19T16:24:02.631Z,-3.69
2022-12-19T16:29:06.654Z,-3.59
2022-12-19T16:34:17.216Z,-3.53
2022-12-19T16:39:20.163Z,-3.47
2022-12-19T16:44:23.871Z,-3.44
2022-12-19T16:49:28.119Z,-3.42
2022-12-19T16:54:31.039Z,-3.38
2022-12-19T16:59:40.175Z,-3.36
2022-12-19T17:04:46.349Z,-3.36
2022-12-19T17:09:51.856Z,-3.33
2022-12-19T17:14:54.848Z,-3.32
2022-12-19T17:19:57.685Z,-3.33
2022-12-19T17:25:00.773Z,-3.31
2022-12-19T17:30:03.979Z,-3.30
2022-12-19T17:35:07.132Z,-3.28
2022-12-19T17:40:31.581Z,-3.28
2022-12-19T17:45:35.064Z,-3.22
2022-12-19T17:50:40.060Z,-3.17
2022-12-19T17:55:43.593Z,-3.14
2022-12-19T18:00:47.463Z,-3.11
2022-12-19T18:05:53.354Z,-3.06
2022-12-19T18:10:59.036Z,-3.03
2022-12-19T18:16:03.787Z,-2.99
2022-12-19T18:21:06.946Z,-2.95
2022-12-19T18:26:12.040Z,-2.90
2022-12-19T18:31:18.919Z,-2.87
2022-12-19T18:36:24.857Z,-2.86
2022-12-19T18:41:27.782Z,-2.83
2022-12-19T18:46:32.049Z,-2.82
2022-12-19T18:51:34.966Z,-2.81
2022-12-19T18:56:37.801Z,-2.76
2022-12-19T19:01:46.942Z,-2.72
2022-12-19T19:06:52.635Z,-2.70
2022-12-19T19:11:55.734Z,-2.70
2022-12-19T19:16:58.702Z,-2.67
2022-12-19T19:22:01.659Z,-2.63
2022-12-19T19:27:04.591Z,-2.59
2022-12-19T19:32:07.749Z,-2.53
2022-12-19T19:37:13.893Z,-2.38
2022-12-19T19:42:18.808Z,-2.26
2022-12-19T19:47:28.779Z,-2.22
2022-12-19T19:52:31.559Z,-2.13
2022-12-19T19:57:34.813Z,-2.01
2022-12-19T20:02:37.935Z,-1.95
2022-12-19T20:07:41.276Z,-1.91
2022-12-19T20:12:44.174Z,-1.88
2022-12-19T20:17:47.086Z,-1.82
2022-12-19T20:22:50.044Z,-1.79
2022-12-19T20:27:52.891Z,-1.74
2022-12-19T20:32:55.723Z,-1.75
2022-12-19T20:37:58.573Z,-1.78
2022-12-19T20:43:02.265Z,-1.78
2022-12-19T20:48:05.284Z,-1.81
2022-12-19T20:53:08.475Z,-1.90
2022-12-19T20:58:11.298Z,-1.95
2022-12-19T21:03:28.067Z,-1.96
2022-12-19T21:08:32.522Z,-2.01
2022-12-19T21:13:36.624Z,-2.04
2022-12-19T21:18:41.393Z,-1.97
2022-12-19T21:23:45.007Z,-1.92
2022-12-19T21:28:47.915Z,-1.91
2022-12-19T21:33:54.706Z,-1.90
2022-12-19T21:39:00.099Z,-1.89
2022-12-19T21:44:03.135Z,-1.90
2022-12-19T21:49:08.496Z,-1.90
2022-12-19T21:54:11.364Z,-1.86
2022-12-19T21:59:16.598Z,-1.70
2022-12-19T22:04:22.240Z,-1.48
2022-12-19T22:09:25.235Z,-1.24
2022-12-19T22:14:28.221Z,-1.10
2022-12-19T22:19:31.511Z,-1.02
2022-12-19T22:24:34.420Z,-0.97
2022-12-19T22:29:37.535Z,-0.95
2022-12-19T22:34:40.357Z,-0.91
2022-12-19T22:39:43.275Z,-0.84
2022-12-19T22:44:46.188Z,-0.76
2022-12-19T22:49:52.776Z,-0.67
2022-12-19T22:54:55.678Z,-0.55
2022-12-19T22:59:58.540Z,-0.49
2022-12-19T23:05:01.355Z,-0.39
2022-12-19T23:10:04.596Z,-0.29
2022-12-19T23:15:07.766Z,-0.16
2022-12-19T23:20:11.451Z,-0.03
2022-12-19T23:25:14.294Z,0.09
2022-12-19T23:30:17.181Z,0.20
2022-12-19T23:35:20.037Z,0.30
2022-12-19T23:40:22.924Z,0.37
2022-12-19T23:45:25.790Z,0.43
2022-12-19T23:50:28.769Z,0.48
2022-12-19T23:55:31.581Z,0.53
